Time;durP1;ratioP1;P1;durP2;ratioP2;P2;SDS_P1;SDS_P2;PMS_P1;PMS_P2;Temp;Humidity;BMP_temperature;BMP_pressure;BME280_temperature;BME280_humidity;BME280_pressure;Samples;Min_cycle;Max_cycle;Signal;HPM_P1;HPM_P2
2022/07/12 00:08:17;;;;;;;2.63;2.43;;;15.70;96.40;;;;;;5030144;28;20599;-84
2022/07/12 00:10:46;;;;;;;2.50;2.00;;;15.70;96.80;;;;;;5054008;28;20630;-83
2022/07/12 00:13:15;;;;;;;1.77;1.67;;;15.60;97.50;;;;;;5053490;28;20712;-83
2022/07/12 00:15:42;;;;;;;1.80;1.70;;;15.50;97.50;;;;;;5052790;28;20613;-83
2022/07/12 00:18:10;;;;;;;9.57;3.40;;;15.50;97.60;;;;;;5057645;28;20716;-84
2022/07/12 00:20:38;;;;;;;1.80;1.70;;;15.40;97.50;;;;;;5052646;28;20704;-84
2022/07/12 00:23:06;;;;;;;2.10;1.70;;;15.30;97.30;;;;;;5055138;28;20632;-84
2022/07/12 00:25:34;;;;;;;3.27;2.53;;;15.20;97.50;;;;;;5055950;28;20618;-84
2022/07/12 00:28:02;;;;;;;2.63;2.43;;;15.30;97.20;;;;;;5060366;28;21197;-84
2022/07/12 00:30:30;;;;;;;1.90;1.80;;;15.30;97.90;;;;;;5059990;28;20617;-84
2022/07/12 00:32:57;;;;;;;4.63;3.23;;;15.30;97.90;;;;;;5057710;28;20636;-83
2022/07/12 00:35:25;;;;;;;2.33;2.13;;;15.30;98.10;;;;;;5057683;28;20617;-85
2022/07/12 00:37:53;;;;;;;7.60;2.07;;;15.10;98.40;;;;;;5051073;28;21052;-84
2022/07/12 00:40:20;;;;;;;2.40;2.20;;;15.10;98.40;;;;;;5053665;28;20677;-82
2022/07/12 00:42:48;;;;;;;2.47;2.27;;;15.00;99.00;;;;;;5056304;28;20621;-84
2022/07/12 00:45:17;;;;;;;2.33;1.77;;;15.10;98.80;;;;;;5056378;28;20786;-84
2022/07/12 00:47:47;;;;;;;2.33;2.13;;;15.20;98.20;;;;;;5051447;28;20764;-84
2022/07/12 00:50:16;;;;;;;2.40;1.70;;;15.20;97.90;;;;;;5053449;28;20623;-84
2022/07/12 00:52:45;;;;;;;2.07;1.97;;;15.10;98.30;;;;;;5055046;28;20961;-83
2022/07/12 00:55:13;;;;;;;2.20;2.00;;;15.10;98.80;;;;;;5054030;28;20684;-84
2022/07/12 00:57:43;;;;;;;2.50;2.10;;;15.20;98.80;;;;;;5053394;28;20614;-84
2022/07/12 01:00:12;;;;;;;3.03;2.40;;;15.10;99.00;;;;;;5062679;28;20622;-83
2022/07/12 01:02:41;;;;;;;3.90;2.10;;;14.90;99.20;;;;;;5058202;28;20618;-83
2022/07/12 01:05:09;;;;;;;2.90;2.63;;;14.90;99.70;;;;;;5052604;28;20614;-83
2022/07/12 01:07:37;;;;;;;2.30;2.10;;;14.80;99.90;;;;;;5054652;28;20695;-83
2022/07/12 01:10:06;;;;;;;3.23;2.60;;;14.80;99.90;;;;;;5053324;28;20625;-82
2022/07/12 01:12:33;;;;;;;1.67;1.57;;;14.80;99.90;;;;;;5056793;28;20625;-83
2022/07/12 01:15:01;;;;;;;1.83;1.70;;;14.80;99.90;;;;;;5052208;28;21204;-84
2022/07/12 01:17:30;;;;;;;1.57;1.47;;;14.80;99.90;;;;;;5053118;28;21128;-83
2022/07/12 01:20:00;;;;;;;2.33;2.13;;;14.90;99.90;;;;;;5054652;28;20614;-84
2022/07/12 01:22:32;;;;;;;1.77;1.67;;;14.70;99.90;;;;;;5049587;28;20707;-83
2022/07/12 01:25:02;;;;;;;1.50;1.40;;;14.70;99.90;;;;;;5053424;28;20618;-83
2022/07/12 01:27:30;;;;;;;2.40;1.90;;;14.70;99.90;;;;;;5051123;28;20622;-83
2022/07/12 01:29:58;;;;;;;2.13;1.90;;;14.70;99.90;;;;;;5054754;28;20706;-83
2022/07/12 01:32:26;;;;;;;3.50;2.67;;;14.70;99.90;;;;;;5055891;28;20724;-84
2022/07/12 01:34:55;;;;;;;1.50;1.40;;;14.70;99.90;;;;;;5059370;28;20622;-83
2022/07/12 01:37:24;;;;;;;4.83;1.90;;;14.70;99.90;;;;;;5056329;28;20629;-83
2022/07/12 01:39:54;;;;;;;3.40;1.90;;;14.80;99.90;;;;;;5052876;28;20735;-83
2022/07/12 01:42:25;;;;;;;1.70;1.60;;;14.80;99.90;;;;;;5048671;28;20618;-84
2022/07/12 01:44:54;;;;;;;1.80;1.70;;;14.80;99.90;;;;;;5050244;28;20618;-83
2022/07/12 01:47:25;;;;;;;2.43;2.23;;;14.70;99.90;;;;;;5056483;28;20628;-83
2022/07/12 01:49:53;;;;;;;1.87;1.67;;;14.80;99.90;;;;;;5052632;28;20625;-83
2022/07/12 01:52:20;;;;;;;2.20;2.03;;;14.70;99.90;;;;;;5051972;28;20617;-83
2022/07/12 01:54:48;;;;;;;2.30;2.10;;;14.80;99.90;;;;;;5056841;28;20725;-83
2022/07/12 01:57:15;;;;;;;2.30;2.10;;;14.80;99.90;;;;;;5056385;28;20606;-83
2022/07/12 01:59:44;;;;;;;2.33;1.83;;;14.70;99.90;;;;;;5057960;28;20680;-84
2022/07/12 02:02:11;;;;;;;1.90;1.80;;;14.60;99.90;;;;;;5054085;28;21075;-83
2022/07/12 02:04:38;;;;;;;2.63;2.43;;;14.60;99.90;;;;;;5055288;28;20621;-83
2022/07/12 02:07:06;;;;;;;3.17;1.70;;;14.60;99.90;;;;;;5056997;28;20722;-84
2022/07/12 02:09:33;;;;;;;1.93;1.83;;;14.50;99.90;;;;;;5053868;28;20640;-83
2022/07/12 02:12:00;;;;;;;1.70;1.60;;;14.50;99.90;;;;;;5052899;28;20764;-83
2022/07/12 02:14:27;;;;;;;4.40;1.80;;;14.50;99.90;;;;;;5054882;28;20683;-82
2022/07/12 02:16:55;;;;;;;1.90;1.50;;;14.50;99.90;;;;;;5056820;28;21752;-83
2022/07/12 02:19:22;;;;;;;1.47;1.37;;;14.40;99.90;;;;;;5051026;28;20650;-83
2022/07/12 02:21:49;;;;;;;2.60;1.37;;;14.30;99.90;;;;;;5050852;28;20613;-83
2022/07/12 02:24:16;;;;;;;1.80;1.63;;;14.30;99.90;;;;;;5054271;28;20629;-84
2022/07/12 02:26:44;;;;;;;1.27;1.10;;;14.40;99.90;;;;;;5056184;28;20969;-83
2022/07/12 02:29:11;;;;;;;1.37;1.27;;;14.40;99.90;;;;;;5050994;28;20622;-83
2022/07/12 02:31:38;;;;;;;1.70;1.57;;;14.50;99.90;;;;;;5056282;28;20679;-83
2022/07/12 02:34:07;;;;;;;1.90;1.57;;;14.40;99.90;;;;;;5054526;28;20622;-83
2022/07/12 02:36:33;;;;;;;2.50;1.97;;;14.40;99.90;;;;;;5053292;28;20602;-81
2022/07/12 02:39:03;;;;;;;1.60;1.50;;;14.40;99.90;;;;;;5056833;28;20645;-82
2022/07/12 02:41:31;;;;;;;2.60;2.07;;;14.30;99.90;;;;;;5054622;28;20614;-83
2022/07/12 02:43:58;;;;;;;2.00;1.80;;;14.20;99.90;;;;;;5053768;28;20660;-83
2022/07/12 02:46:25;;;;;;;1.60;1.50;;;14.10;99.90;;;;;;5053515;28;20608;-83
2022/07/12 02:48:52;;;;;;;1.50;1.40;;;14.00;99.90;;;;;;5050311;28;20633;-83
2022/07/12 02:51:20;;;;;;;1.97;1.87;;;14.10;99.90;;;;;;5055008;28;20625;-83
2022/07/12 02:53:47;;;;;;;1.40;1.30;;;14.00;99.90;;;;;;5053339;28;20629;-83
2022/07/12 02:56:14;;;;;;;1.50;1.40;;;14.00;99.90;;;;;;5048937;28;21499;-82
2022/07/12 02:58:41;;;;;;;2.03;1.60;;;14.00;99.90;;;;;;5055157;28;20660;-81
2022/07/12 03:01:08;;;;;;;1.67;1.47;;;14.00;99.90;;;;;;5058211;28;20713;-83
2022/07/12 03:03:35;;;;;;;1.57;1.47;;;14.10;99.90;;;;;;5050436;28;21562;-82
2022/07/12 03:06:02;;;;;;;1.90;1.40;;;14.00;99.90;;;;;;5049505;28;20720;-83
2022/07/12 03:08:30;;;;;;;1.60;1.50;;;13.90;99.90;;;;;;5056824;28;20617;-83
2022/07/12 03:10:57;;;;;;;2.07;1.90;;;13.80;99.90;;;;;;5050421;28;20618;-83
2022/07/12 03:13:25;;;;;;;1.83;1.73;;;13.80;99.90;;;;;;5048973;28;21553;-83
2022/07/12 03:15:52;;;;;;;1.60;1.50;;;13.80;99.90;;;;;;5054090;28;20644;-82
2022/07/12 03:18:19;;;;;;;1.73;1.40;;;13.80;99.90;;;;;;5048278;28;20679;-83
2022/07/12 03:20:46;;;;;;;1.20;1.10;;;13.80;99.90;;;;;;5048776;28;20613;-83
2022/07/12 03:23:13;;;;;;;1.60;1.50;;;13.90;99.90;;;;;;5053415;28;20951;-83
2022/07/12 03:25:41;;;;;;;1.33;1.23;;;13.90;99.90;;;;;;5057640;28;20987;-83
2022/07/12 03:28:08;;;;;;;2.17;1.97;;;13.90;99.90;;;;;;5047907;28;20630;-83
2022/07/12 03:30:35;;;;;;;0.70;0.70;;;14.00;99.90;;;;;;5058581;28;20661;-83
2022/07/12 03:33:01;;;;;;;1.70;1.60;;;13.90;99.90;;;;;;5052871;28;20634;-83
2022/07/12 03:35:28;;;;;;;2.00;1.77;;;14.00;99.90;;;;;;5055175;28;20657;-83
2022/07/12 03:37:55;;;;;;;1.97;1.53;;;13.90;99.90;;;;;;5054693;28;20653;-84
2022/07/12 03:40:23;;;;;;;9.50;1.60;;;13.80;99.90;;;;;;5052377;28;20663;-83
2022/07/12 03:42:53;;;;;;;1.37;1.10;;;13.80;99.90;;;;;;5051549;28;21239;-83
2022/07/12 03:45:20;;;;;;;1.70;1.60;;;13.80;99.90;;;;;;5057201;28;20658;-83
2022/07/12 03:47:48;;;;;;;1.47;1.37;;;13.90;99.90;;;;;;5047101;28;20730;-84
2022/07/12 03:50:15;;;;;;;1.13;1.03;;;14.00;99.90;;;;;;5054520;28;20625;-85
2022/07/12 03:52:43;;;;;;;0.90;0.90;;;14.00;99.90;;;;;;5054735;28;20719;-82
2022/07/12 03:55:11;;;;;;;1.20;1.10;;;14.00;99.90;;;;;;5052638;28;20712;-83
2022/07/12 03:57:38;;;;;;;1.70;1.60;;;14.00;99.90;;;;;;5052973;28;20710;-83
2022/07/12 04:00:10;;;;;;;1.07;0.97;;;13.90;99.90;;;;;;5048749;28;20709;-83
2022/07/12 04:02:37;;;;;;;1.40;1.30;;;13.90;99.90;;;;;;5052631;28;20626;-83
2022/07/12 04:05:05;;;;;;;0.90;0.90;;;13.90;99.90;;;;;;5052640;28;20665;-83
2022/07/12 04:07:33;;;;;;;1.27;1.17;;;13.90;99.90;;;;;;5052911;28;20734;-83
2022/07/12 04:10:00;;;;;;;1.07;0.97;;;13.80;99.90;;;;;;5054974;28;20656;-83
2022/07/12 04:12:26;;;;;;;1.23;1.00;;;13.90;99.90;;;;;;5054595;28;20626;-83
2022/07/12 04:14:53;;;;;;;1.30;1.20;;;13.90;99.90;;;;;;5054395;28;21168;-83
2022/07/12 04:17:21;;;;;;;0.90;0.90;;;13.90;99.90;;;;;;5057094;28;20721;-83
2022/07/12 04:19:48;;;;;;;1.17;1.07;;;13.90;99.90;;;;;;5056820;28;20663;-83
2022/07/12 04:22:15;;;;;;;1.10;1.10;;;13.80;99.90;;;;;;5060294;28;20683;-83
2022/07/12 04:24:42;;;;;;;2.00;1.40;;;13.80;99.90;;;;;;5057424;28;20717;-83
2022/07/12 04:27:09;;;;;;;4.97;1.50;;;13.90;99.90;;;;;;5052978;28;20763;-83
2022/07/12 04:29:36;;;;;;;0.90;0.90;;;14.00;99.90;;;;;;5056333;28;21215;-83
2022/07/12 04:32:03;;;;;;;1.73;1.63;;;14.10;99.90;;;;;;5054861;28;21202;-83
2022/07/12 04:34:31;;;;;;;2.23;1.70;;;14.20;99.90;;;;;;5054989;28;20625;-83
2022/07/12 04:36:58;;;;;;;2.70;2.20;;;14.30;99.90;;;;;;5053653;28;21260;-83
2022/07/12 04:39:24;;;;;;;2.17;1.87;;;14.40;99.90;;;;;;5056709;28;20677;-83
2022/07/12 04:41:51;;;;;;;2.17;1.47;;;14.30;99.90;;;;;;5056948;28;20617;-83
2022/07/12 04:44:18;;;;;;;2.57;1.40;;;14.40;99.90;;;;;;5058660;28;20713;-83
2022/07/12 04:46:45;;;;;;;2.00;1.23;;;14.40;99.90;;;;;;5051779;28;20733;-83
2022/07/12 04:49:12;;;;;;;1.13;1.10;;;14.50;99.90;;;;;;5048230;28;20757;-83
2022/07/12 04:51:40;;;;;;;1.30;1.20;;;14.50;99.90;;;;;;5054232;28;20776;-83
2022/07/12 04:54:07;;;;;;;1.80;1.20;;;14.60;99.90;;;;;;5051459;28;20665;-83
2022/07/12 04:56:34;;;;;;;0.90;0.90;;;14.60;99.90;;;;;;5053367;28;20636;-83
2022/07/12 04:59:01;;;;;;;3.60;1.47;;;14.70;99.90;;;;;;5057066;28;20772;-83
2022/07/12 05:01:28;;;;;;;2.80;2.60;;;14.70;99.90;;;;;;5058961;28;20850;-83
2022/07/12 05:03:55;;;;;;;1.87;1.53;;;14.70;99.90;;;;;;5059866;28;20625;-83
2022/07/12 05:06:22;;;;;;;2.03;1.63;;;14.80;99.90;;;;;;5051711;28;20680;-83
2022/07/12 05:08:50;;;;;;;1.50;1.40;;;15.00;99.90;;;;;;5053548;28;20626;-83
2022/07/12 05:11:17;;;;;;;1.40;1.30;;;15.00;99.90;;;;;;5053176;28;21155;-82
2022/07/12 05:13:44;;;;;;;2.10;1.90;;;15.00;99.90;;;;;;5054171;28;20629;-83
2022/07/12 05:16:11;;;;;;;2.03;1.53;;;15.10;99.90;;;;;;5048338;28;20960;-83
2022/07/12 05:18:38;;;;;;;3.40;2.30;;;15.20;99.90;;;;;;5054485;28;20629;-83
2022/07/12 05:21:06;;;;;;;2.27;1.40;;;15.40;99.90;;;;;;5054427;28;21325;-83
2022/07/12 05:23:33;;;;;;;2.80;1.90;;;15.40;99.90;;;;;;5054926;28;20646;-83
2022/07/12 05:26:02;;;;;;;1.60;1.50;;;15.50;99.90;;;;;;5058613;28;21259;-83
2022/07/12 05:28:29;;;;;;;1.90;1.60;;;15.50;99.90;;;;;;5053740;28;21192;-83
2022/07/12 05:30:55;;;;;;;2.63;1.87;;;15.60;99.90;;;;;;5060683;28;20678;-83
2022/07/12 05:33:22;;;;;;;1.90;1.70;;;15.60;99.90;;;;;;5053606;28;20626;-84
2022/07/12 05:35:49;;;;;;;1.60;1.50;;;15.80;99.90;;;;;;5050643;28;20714;-83
2022/07/12 05:38:16;;;;;;;1.67;1.30;;;15.90;99.90;;;;;;5052706;28;20634;-83
2022/07/12 05:40:43;;;;;;;2.40;2.20;;;15.90;99.90;;;;;;5052471;28;20701;-83
2022/07/12 05:43:11;;;;;;;1.50;1.20;;;16.10;99.90;;;;;;5054091;28;20666;-83
2022/07/12 05:45:38;;;;;;;1.40;1.30;;;16.10;99.90;;;;;;5053027;28;20758;-83
2022/07/12 05:48:05;;;;;;;2.10;1.87;;;16.10;99.90;;;;;;5056346;28;20645;-83
2022/07/12 05:50:32;;;;;;;2.30;2.10;;;16.20;99.90;;;;;;5055002;28;20606;-83
2022/07/12 05:55:44;;;;;;;2.83;1.80;;;16.40;99.90;;;;;;5054509;28;20969;-83
2022/07/12 05:58:13;;;;;;;2.40;2.20;;;16.40;99.90;;;;;;5054462;28;20618;-83
2022/07/12 06:00:40;;;;;;;1.10;1.00;;;16.50;99.90;;;;;;5055803;28;21055;-83
2022/07/12 06:03:06;;;;;;;1.67;1.50;;;16.60;99.90;;;;;;5052207;28;20614;-83
2022/07/12 06:05:33;;;;;;;1.70;1.60;;;16.70;99.90;;;;;;5055161;28;21196;-84
2022/07/12 06:08:02;;;;;;;1.40;1.30;;;16.80;99.90;;;;;;5050678;28;20686;-83
2022/07/12 06:10:29;;;;;;;0.90;0.90;;;17.00;99.60;;;;;;5049901;28;20607;-83
2022/07/12 06:12:56;;;;;;;0.60;0.60;;;17.20;98.40;;;;;;5057339;28;20630;-82
2022/07/12 06:15:25;;;;;;;0.60;0.60;;;17.40;97.80;;;;;;5056582;28;20731;-83
2022/07/12 06:17:53;;;;;;;1.27;0.90;;;17.60;96.90;;;;;;5056391;28;20720;-83
2022/07/12 06:20:20;;;;;;;1.33;1.23;;;17.70;95.60;;;;;;5050158;28;20700;-83
2022/07/12 06:22:47;;;;;;;0.80;0.80;;;17.80;95.70;;;;;;5042270;28;20662;-84
2022/07/12 06:25:14;;;;;;;0.50;0.50;;;18.00;94.80;;;;;;5058592;28;20707;-83
2022/07/12 06:27:41;;;;;;;1.40;0.93;;;18.10;94.20;;;;;;5053709;28;21178;-82
2022/07/12 06:30:08;;;;;;;1.27;0.80;;;18.20;94.10;;;;;;5057660;28;20625;-84
2022/07/12 06:32:37;;;;;;;0.90;0.70;;;18.20;93.30;;;;;;5053949;28;20670;-84
2022/07/12 06:35:04;;;;;;;0.60;0.57;;;18.20;93.40;;;;;;5050247;28;20742;-83
2022/07/12 06:37:31;;;;;;;0.70;0.60;;;18.30;94.10;;;;;;5055536;28;20674;-83
2022/07/12 06:39:57;;;;;;;0.97;0.60;;;18.40;93.20;;;;;;5048401;28;20646;-83
2022/07/12 06:42:24;;;;;;;0.67;0.67;;;18.50;92.40;;;;;;5060194;28;20637;-83
2022/07/12 06:44:51;;;;;;;0.63;0.63;;;18.60;92.90;;;;;;5048044;28;20716;-83
2022/07/12 06:47:18;;;;;;;1.00;0.67;;;18.60;92.70;;;;;;5048202;28;20628;-82
2022/07/12 06:49:46;;;;;;;1.00;0.90;;;18.60;92.10;;;;;;5048372;28;20741;-83
2022/07/12 06:52:13;;;;;;;0.40;0.40;;;18.40;92.10;;;;;;5051453;28;20910;-83
2022/07/12 06:54:40;;;;;;;0.50;0.50;;;18.60;92.30;;;;;;5055210;28;20731;-83
2022/07/12 06:57:07;;;;;;;0.50;0.50;;;18.80;92.10;;;;;;5056046;28;21268;-82
2022/07/12 06:59:34;;;;;;;0.50;0.40;;;18.90;91.40;;;;;;5052739;28;20626;-82
2022/07/12 07:02:01;;;;;;;0.50;0.50;;;19.00;91.50;;;;;;5057588;28;21080;-84
2022/07/12 07:04:27;;;;;;;0.50;0.50;;;19.10;91.20;;;;;;5054795;28;20621;-84
2022/07/12 07:06:56;;;;;;;0.60;0.60;;;19.20;90.90;;;;;;5057051;28;20732;-83
2022/07/12 07:09:23;;;;;;;0.87;0.70;;;19.20;90.70;;;;;;5052941;28;20720;-82
2022/07/12 07:11:50;;;;;;;0.40;0.37;;;19.10;91.20;;;;;;5053980;28;20653;-84
2022/07/12 07:14:17;;;;;;;0.40;0.40;;;19.20;90.60;;;;;;5054603;28;21192;-84
2022/07/12 07:16:44;;;;;;;0.60;0.60;;;19.10;90.50;;;;;;5054901;28;20621;-83
2022/07/12 07:19:11;;;;;;;1.23;1.10;;;19.00;90.10;;;;;;5051387;28;20633;-83
2022/07/12 07:21:38;;;;;;;1.63;0.90;;;19.00;90.50;;;;;;5053456;28;20689;-82
2022/07/12 07:24:06;;;;;;;0.97;0.70;;;19.20;90.90;;;;;;5054410;28;21266;-83
2022/07/12 07:26:34;;;;;;;1.27;0.80;;;19.20;88.80;;;;;;5050096;28;21049;-83
2022/07/12 07:31:45;;;;;;;0.80;0.80;;;19.60;89.80;;;;;;5048132;28;20701;-83
2022/07/12 07:34:12;;;;;;;0.90;0.77;;;19.80;89.90;;;;;;5056840;28;20633;-84
2022/07/12 07:36:39;;;;;;;0.53;0.50;;;19.80;89.20;;;;;;5054869;28;20630;-83
2022/07/12 07:39:08;;;;;;;1.30;0.93;;;19.70;88.00;;;;;;5052070;28;20986;-82
2022/07/12 07:41:35;;;;;;;0.90;0.70;;;19.70;87.60;;;;;;5055283;28;20732;-82
2022/07/12 07:44:02;;;;;;;0.60;0.60;;;20.00;86.00;;;;;;5058454;28;20667;-83
2022/07/12 07:46:29;;;;;;;1.17;0.47;;;20.20;87.00;;;;;;5050848;28;21182;-83
2022/07/12 07:48:56;;;;;;;0.90;0.90;;;20.40;86.50;;;;;;5055481;28;20732;-82
2022/07/12 07:51:22;;;;;;;1.37;1.10;;;20.30;86.50;;;;;;5049473;28;20732;-82
2022/07/12 07:53:49;;;;;;;1.50;0.63;;;20.10;86.10;;;;;;5056000;28;20613;-83
2022/07/12 07:56:17;;;;;;;1.00;0.90;;;19.90;87.40;;;;;;5055166;28;20636;-82
2022/07/12 07:58:44;;;;;;;0.63;0.63;;;19.90;85.30;;;;;;5056804;28;20720;-82
2022/07/12 08:04:33;;;;;;;0.93;0.90;;;20.00;84.30;;;;;;5044799;28;20650;-83
2022/07/12 08:07:00;;;;;;;0.73;0.73;;;20.20;85.30;;;;;;5048773;28;20642;-82
2022/07/12 08:09:27;;;;;;;1.00;0.60;;;20.20;82.60;;;;;;5050459;28;20739;-83
2022/07/12 08:11:55;;;;;;;0.70;0.50;;;20.20;81.90;;;;;;5050374;28;21190;-83
2022/07/12 08:14:22;;;;;;;0.43;0.40;;;20.20;81.30;;;;;;5049957;28;20642;-83
2022/07/12 08:16:49;;;;;;;1.03;0.77;;;20.10;82.90;;;;;;5049860;28;21146;-83
2022/07/12 08:19:15;;;;;;;0.80;0.63;;;20.20;83.00;;;;;;5045779;28;20626;-82
2022/07/12 08:21:42;;;;;;;0.80;0.63;;;20.60;83.50;;;;;;5050812;28;20764;-83
2022/07/12 08:24:09;;;;;;;0.40;0.40;;;20.80;81.40;;;;;;5049149;28;20979;-83
2022/07/12 08:26:36;;;;;;;0.70;0.57;;;20.70;79.80;;;;;;5049135;28;21195;-83
2022/07/12 08:29:04;;;;;;;0.90;0.60;;;20.90;81.20;;;;;;5047989;28;20626;-83
2022/07/12 08:31:31;;;;;;;0.70;0.70;;;21.20;81.70;;;;;;5048681;28;20630;-83
2022/07/12 08:33:58;;;;;;;1.00;0.73;;;21.00;81.10;;;;;;5047901;28;20638;-83
2022/07/12 08:36:25;;;;;;;1.43;0.60;;;21.20;78.90;;;;;;5048599;28;21497;-83
2022/07/12 08:38:52;;;;;;;0.50;0.50;;;21.40;79.50;;;;;;5048738;28;20752;-82
2022/07/12 08:41:19;;;;;;;1.63;1.03;;;21.30;80.30;;;;;;5048964;28;20657;-83
2022/07/12 08:43:45;;;;;;;1.80;0.50;;;21.40;79.70;;;;;;5049045;28;20614;-83
2022/07/12 08:46:15;;;;;;;0.53;0.53;;;21.50;79.70;;;;;;5030496;28;20729;-83
2022/07/12 08:48:43;;;;;;;0.60;0.60;;;21.70;79.20;;;;;;5029930;28;20662;-83
2022/07/12 08:51:12;;;;;;;0.80;0.80;;;21.90;75.30;;;;;;5040661;28;20673;-83
2022/07/12 08:53:39;;;;;;;0.40;0.40;;;22.00;75.80;;;;;;5044861;28;20614;-84
2022/07/12 08:56:08;;;;;;;0.50;0.50;;;22.00;76.50;;;;;;5048477;28;21171;-84
2022/07/12 08:58:35;;;;;;;0.50;0.50;;;22.10;76.40;;;;;;5046330;28;20625;-84
2022/07/12 09:01:01;;;;;;;0.60;0.60;;;22.30;76.40;;;;;;5048677;28;20661;-84
2022/07/12 09:03:30;;;;;;;0.83;0.83;;;22.40;75.20;;;;;;5047051;28;21290;-83
2022/07/12 09:05:58;;;;;;;1.00;0.80;;;22.30;75.60;;;;;;5048475;28;20632;-83
2022/07/12 09:08:28;;;;;;;0.57;0.57;;;22.30;72.90;;;;;;5048599;28;20626;-83
2022/07/12 09:11:01;;;;;;;0.50;0.50;;;22.30;71.20;;;;;;5047998;28;21199;-83
2022/07/12 09:13:48;;;;;;;0.70;0.70;;;22.40;73.90;;;;;;5047429;28;20960;-83
2022/07/12 09:16:16;;;;;;;0.60;0.60;;;22.70;72.30;;;;;;5047408;28;20646;-83
2022/07/12 09:18:46;;;;;;;0.83;0.53;;;22.90;73.70;;;;;;5048032;28;20618;-83
2022/07/12 09:21:23;;;;;;;0.60;0.60;;;22.80;73.90;;;;;;5047995;28;20646;-84
2022/07/12 09:23:57;;;;;;;0.60;0.60;;;23.10;72.80;;;;;;5043994;28;20622;-84
2022/07/12 09:26:25;;;;;;;0.50;0.50;;;23.20;71.60;;;;;;5033252;28;20649;-84
2022/07/12 09:28:52;;;;;;;0.40;0.30;;;23.50;73.10;;;;;;5044804;28;20965;-84
2022/07/12 09:31:19;;;;;;;0.50;0.50;;;23.20;71.40;;;;;;5047698;28;20667;-84
2022/07/12 09:36:56;;;;;;;0.70;0.70;;;23.00;72.40;;;;;;5029097;28;20684;-83
2022/07/12 09:39:24;;;;;;;0.50;0.50;;;22.80;70.50;;;;;;5043348;28;20626;-84
2022/07/12 09:41:53;;;;;;;0.60;0.60;;;22.80;69.00;;;;;;5046782;28;20653;-83
2022/07/12 09:44:21;;;;;;;0.60;0.50;;;23.20;70.30;;;;;;5046803;28;20697;-85
2022/07/12 09:46:48;;;;;;;0.70;0.70;;;23.40;70.10;;;;;;5049211;28;20732;-84
2022/07/12 09:49:18;;;;;;;0.70;0.70;;;23.50;69.10;;;;;;5048944;28;20646;-84
2022/07/12 09:51:46;;;;;;;0.50;0.50;;;23.20;70.00;;;;;;5049272;28;20610;-83
2022/07/12 09:54:19;;;;;;;0.90;0.70;;;23.30;70.90;;;;;;5048849;28;20623;-84
2022/07/12 09:56:49;;;;;;;1.23;0.50;;;23.60;68.80;;;;;;5048457;28;21172;-84
2022/07/12 09:59:21;;;;;;;0.70;0.70;;;23.60;69.00;;;;;;5043470;28;20692;-84
2022/07/12 10:01:48;;;;;;;0.50;0.40;;;23.20;67.90;;;;;;5047622;28;20658;-83
2022/07/12 10:04:21;;;;;;;0.70;0.70;;;23.40;69.30;;;;;;5048355;28;20709;-82
2022/07/12 10:06:48;;;;;;;0.67;0.50;;;23.10;67.50;;;;;;5048018;28;20630;-84
2022/07/12 10:09:16;;;;;;;0.43;0.40;;;23.20;67.50;;;;;;5042191;28;20693;-83
2022/07/12 10:11:43;;;;;;;0.60;0.50;;;23.20;69.10;;;;;;5048171;28;20680;-84
2022/07/12 10:14:12;;;;;;;0.50;0.50;;;23.40;67.50;;;;;;5031499;28;20667;-84
2022/07/12 10:16:42;;;;;;;0.50;0.40;;;23.50;66.20;;;;;;5031866;28;20626;-84
2022/07/12 10:19:29;;;;;;;1.17;0.60;;;23.80;67.60;;;;;;5040276;28;20635;-84
2022/07/12 10:21:58;;;;;;;0.60;0.60;;;24.30;65.30;;;;;;5032302;28;20655;-84
2022/07/12 10:24:47;;;;;;;0.60;0.50;;;24.60;67.10;;;;;;5043190;28;20725;-83
2022/07/12 10:27:37;;;;;;;0.40;0.40;;;24.80;64.40;;;;;;5048060;28;20719;-84
2022/07/12 10:30:24;;;;;;;0.63;0.63;;;24.90;62.70;;;;;;5033101;28;20646;-85
2022/07/12 10:32:53;;;;;;;0.40;0.40;;;25.10;61.40;;;;;;5032137;28;20729;-84
2022/07/12 10:35:24;;;;;;;0.50;0.50;;;25.30;63.00;;;;;;5042207;28;20650;-84
2022/07/12 10:38:17;;;;;;;0.70;0.60;;;25.00;65.60;;;;;;5028884;28;20666;-84
2022/07/12 10:40:45;;;;;;;1.13;0.60;;;25.00;61.80;;;;;;5037896;28;20974;-83
2022/07/12 10:46:25;;;;;;;0.30;0.30;;;25.20;60.70;;;;;;5046323;28;21172;-84
2022/07/12 10:48:52;;;;;;;0.40;0.30;;;25.00;60.00;;;;;;5047464;28;21038;-84
2022/07/12 10:51:20;;;;;;;0.90;0.50;;;25.30;59.90;;;;;;5047944;28;20630;-85
2022/07/12 10:53:50;;;;;;;0.97;0.97;;;25.40;59.60;;;;;;5035236;28;20719;-85
2022/07/12 10:56:21;;;;;;;0.50;0.50;;;25.60;60.10;;;;;;5028186;28;20631;-82
2022/07/12 10:58:54;;;;;;;0.60;0.53;;;25.90;62.20;;;;;;5045463;28;20610;-84
2022/07/12 11:01:25;;;;;;;0.90;0.50;;;26.10;59.40;;;;;;5047027;28;20699;-85
2022/07/12 11:03:55;;;;;;;0.40;0.40;;;26.20;58.80;;;;;;5047754;28;21055;-84
2022/07/12 11:06:25;;;;;;;0.60;0.50;;;26.40;59.50;;;;;;5028576;28;20720;-84
2022/07/12 11:08:55;;;;;;;0.37;0.30;;;26.30;59.00;;;;;;5032174;28;20691;-84
2022/07/12 11:11:23;;;;;;;0.50;0.50;;;26.50;59.40;;;;;;5039047;28;20635;-84
2022/07/12 11:13:50;;;;;;;0.40;0.40;;;26.70;58.50;;;;;;5031265;28;21224;-84
2022/07/12 11:16:18;;;;;;;0.60;0.47;;;26.80;59.00;;;;;;5032341;28;20670;-83
2022/07/12 11:18:45;;;;;;;0.70;0.40;;;26.20;57.20;;;;;;5034412;28;20885;-84
2022/07/12 11:21:12;;;;;;;0.60;0.57;;;26.70;57.40;;;;;;5051483;28;20692;-84
2022/07/12 11:23:41;;;;;;;0.50;0.50;;;27.00;59.10;;;;;;5049745;28;20621;-84
2022/07/12 11:26:10;;;;;;;0.50;0.50;;;27.20;57.10;;;;;;5047162;28;20669;-83
2022/07/12 11:28:42;;;;;;;0.43;0.40;;;27.30;56.90;;;;;;5043767;28;20619;-84
2022/07/12 11:31:11;;;;;;;0.50;0.50;;;27.60;57.10;;;;;;5032330;28;20615;-84
2022/07/12 11:33:40;;;;;;;0.50;0.50;;;27.70;55.80;;;;;;5032204;28;20635;-84
2022/07/12 11:36:09;;;;;;;0.70;0.50;;;28.00;54.30;;;;;;5040472;28;20750;-83
2022/07/12 11:38:37;;;;;;;0.50;0.30;;;28.10;54.80;;;;;;5051670;28;20622;-84
2022/07/12 11:41:07;;;;;;;0.50;0.40;;;28.30;54.40;;;;;;5046724;28;20651;-84
2022/07/12 11:43:35;;;;;;;0.73;0.73;;;28.10;54.20;;;;;;5040382;28;20979;-84
2022/07/12 11:46:04;;;;;;;1.13;0.40;;;28.00;54.40;;;;;;5051744;28;20622;-83
2022/07/12 11:48:32;;;;;;;0.50;0.40;;;28.50;54.70;;;;;;5050988;28;20633;-84
2022/07/12 11:51:02;;;;;;;0.40;0.40;;;29.00;53.80;;;;;;5033708;28;20626;-85
2022/07/12 11:53:29;;;;;;;0.50;0.47;;;29.00;53.20;;;;;;5030611;28;20761;-85
2022/07/12 11:55:57;;;;;;;0.40;0.40;;;29.60;52.90;;;;;;5029631;28;20635;-84
2022/07/12 11:58:28;;;;;;;0.50;0.50;;;28.70;50.80;;;;;;5029657;28;20723;-82
2022/07/12 12:00:56;;;;;;;0.40;0.40;;;29.30;53.10;;;;;;5034020;28;20654;-84
2022/07/12 12:03:23;;;;;;;0.40;0.30;;;30.30;50.50;;;;;;5031887;28;20717;-83
2022/07/12 12:05:51;;;;;;;0.50;0.50;;;31.10;49.10;;;;;;5030391;28;21544;-83
2022/07/12 12:08:19;;;;;;;0.30;0.30;;;31.70;48.30;;;;;;5030623;28;21050;-83
2022/07/12 12:10:54;;;;;;;0.40;0.40;;;32.40;46.90;;;;;;5048012;28;20630;-84
2022/07/12 12:13:21;;;;;;;0.70;0.70;;;33.10;46.50;;;;;;5042706;28;20720;-84
2022/07/12 12:15:54;;;;;;;0.60;0.60;;;33.80;45.10;;;;;;5044959;28;21513;-85
2022/07/12 12:18:32;;;;;;;0.40;0.40;;;34.40;42.50;;;;;;5040133;28;21176;-83
2022/07/12 12:21:01;;;;;;;0.40;0.40;;;34.90;43.10;;;;;;5048572;28;20721;-83
2022/07/12 12:23:28;;;;;;;0.40;0.30;;;34.20;45.10;;;;;;5032449;28;20622;-84
2022/07/12 12:26:10;;;;;;;0.40;0.40;;;35.10;43.40;;;;;;5036506;28;20233;-83
2022/07/12 12:28:45;;;;;;;0.30;0.30;;;35.70;42.30;;;;;;5029893;28;20310;-83
2022/07/12 12:31:14;;;;;;;0.50;0.50;;;34.60;43.00;;;;;;5030656;28;20226;-84
2022/07/12 12:33:42;;;;;;;0.40;0.40;;;35.30;42.00;;;;;;5030730;28;20295;-83
2022/07/12 12:36:14;;;;;;;0.30;0.30;;;35.90;41.30;;;;;;5030336;28;20226;-84
2022/07/12 12:38:42;;;;;;;0.40;0.40;;;36.30;39.30;;;;;;5037616;28;20788;-84
2022/07/12 12:41:09;;;;;;;0.40;0.30;;;36.50;39.00;;;;;;5044286;28;20278;-84
2022/07/12 12:43:36;;;;;;;0.55;0.50;;;36.60;38.30;;;;;;5041263;28;20268;-83
2022/07/12 12:46:03;;;;;;;0.40;0.40;;;36.80;38.90;;;;;;5030722;28;20265;-84
2022/07/12 12:48:33;;;;;;;0.40;0.40;;;36.90;38.70;;;;;;5045884;28;20296;-84
2022/07/12 12:51:05;;;;;;;0.40;0.40;;;37.10;38.60;;;;;;5049136;28;20283;-84
2022/07/12 12:53:32;;;;;;;0.30;0.30;;;36.20;39.90;;;;;;5038652;28;20284;-82
2022/07/12 12:55:59;;;;;;;0.47;0.40;;;34.10;38.50;;;;;;5029852;28;20282;-81
2022/07/12 12:58:26;;;;;;;0.40;0.40;;;35.00;41.50;;;;;;5029632;28;20733;-82
2022/07/12 13:00:55;;;;;;;0.40;0.40;;;35.30;39.60;;;;;;5031090;28;20204;-82
2022/07/12 13:03:24;;;;;;;0.60;0.60;;;35.60;40.60;;;;;;5047918;28;20277;-83
2022/07/12 13:05:52;;;;;;;0.30;0.30;;;36.50;38.90;;;;;;5046144;28;20215;-84
2022/07/12 13:08:21;;;;;;;0.33;0.33;;;34.90;38.60;;;;;;5039421;28;20206;-84
2022/07/12 13:11:18;;;;;;;0.40;0.40;;;35.90;39.70;;;;;;5047768;28;20286;-84
2022/07/12 13:13:37;;;;;;;0.60;0.50;;;36.20;39.00;;;;;;5049089;28;20231;-85
2022/07/12 13:16:04;;;;;;;0.40;0.40;;;36.00;38.10;;;;;;5047407;28;20195;-85